sensor_id;sensor_type;location;lat;lon;timestamp;temperature;humidity
563;DHT22;266;49.514;8.294;2022-12-29T00:00:59;12.20;99.90
563;DHT22;266;49.514;8.294;2022-12-29T00:03:28;12.20;99.90
563;DHT22;266;49.514;8.294;2022-12-29T00:05:58;12.30;99.90
563;DHT22;266;49.514;8.294;2022-12-29T00:08:25;12.30;99.90
563;DHT22;266;49.514;8.294;2022-12-29T00:11:07;12.40;99.90
563;DHT22;266;49.514;8.294;2022-12-29T00:13:35;12.40;99.90
563;DHT22;266;49.514;8.294;2022-12-29T00:16:20;12.40;99.90
563;DHT22;266;49.514;8.294;2022-12-29T00:18:48;12.40;99.90
563;DHT22;266;49.514;8.294;2022-12-29T00:21:19;12.40;99.90
563;DHT22;266;49.514;8.294;2022-12-29T00:24:05;12.30;99.90
563;DHT22;266;49.514;8.294;2022-12-29T00:26:55;12.30;99.90
563;DHT22;266;49.514;8.294;2022-12-29T00:29:41;12.30;99.90
563;DHT22;266;49.514;8.294;2022-12-29T00:32:27;12.30;99.90
563;DHT22;266;49.514;8.294;2022-12-29T00:35:15;12.40;99.90
563;DHT22;266;49.514;8.294;2022-12-29T00:37:48;12.40;99.90
563;DHT22;266;49.514;8.294;2022-12-29T00:40:33;12.40;99.90
563;DHT22;266;49.514;8.294;2022-12-29T00:43:19;12.40;99.90
563;DHT22;266;49.514;8.294;2022-12-29T00:46:04;12.30;99.90
563;DHT22;266;49.514;8.294;2022-12-29T00:48:32;12.30;99.90
563;DHT22;266;49.514;8.294;2022-12-29T00:51:18;12.30;99.90
563;DHT22;266;49.514;8.294;2022-12-29T00:53:47;12.40;99.90
563;DHT22;266;49.514;8.294;2022-12-29T00:56:15;12.50;99.90
563;DHT22;266;49.514;8.294;2022-12-29T00:58:43;12.50;99.90
563;DHT22;266;49.514;8.294;2022-12-29T01:01:11;12.50;99.90
563;DHT22;266;49.514;8.294;2022-12-29T01:03:39;12.50;99.90
563;DHT22;266;49.514;8.294;2022-12-29T01:06:09;12.50;99.90
563;DHT22;266;49.514;8.294;2022-12-29T01:08:37;12.40;99.90
563;DHT22;266;49.514;8.294;2022-12-29T01:11:08;12.50;99.90
563;DHT22;266;49.514;8.294;2022-12-29T01:13:35;12.50;99.90
563;DHT22;266;49.514;8.294;2022-12-29T01:16:05;12.50;99.90
563;DHT22;266;49.514;8.294;2022-12-29T01:18:33;12.50;99.90
563;DHT22;266;49.514;8.294;2022-12-29T01:21:02;12.50;99.90
563;DHT22;266;49.514;8.294;2022-12-29T01:23:30;12.50;99.90
563;DHT22;266;49.514;8.294;2022-12-29T01:26:09;12.50;99.90
563;DHT22;266;49.514;8.294;2022-12-29T01:28:37;12.50;99.90
563;DHT22;266;49.514;8.294;2022-12-29T01:31:07;12.40;99.90
563;DHT22;266;49.514;8.294;2022-12-29T01:33:35;12.40;99.90
563;DHT22;266;49.514;8.294;2022-12-29T01:36:05;12.40;99.90
563;DHT22;266;49.514;8.294;2022-12-29T01:38:34;12.40;99.90
563;DHT22;266;49.514;8.294;2022-12-29T01:41:04;12.40;99.90
563;DHT22;266;49.514;8.294;2022-12-29T01:43:41;12.40;99.90
563;DHT22;266;49.514;8.294;2022-12-29T01:46:15;12.30;99.90
563;DHT22;266;49.514;8.294;2022-12-29T01:48:48;12.30;99.90
563;DHT22;266;49.514;8.294;2022-12-29T01:51:16;12.40;99.90
563;DHT22;266;49.514;8.294;2022-12-29T01:53:45;12.40;99.90
563;DHT22;266;49.514;8.294;2022-12-29T01:56:15;12.40;99.90
563;DHT22;266;49.514;8.294;2022-12-29T01:58:48;12.40;99.90
563;DHT22;266;49.514;8.294;2022-12-29T02:01:18;12.40;99.90
563;DHT22;266;49.514;8.294;2022-12-29T02:03:49;12.40;99.90
563;DHT22;266;49.514;8.294;2022-12-29T02:06:21;12.40;99.90
563;DHT22;266;49.514;8.294;2022-12-29T02:08:50;12.40;99.90
563;DHT22;266;49.514;8.294;2022-12-29T02:13:51;12.40;99.90
563;DHT22;266;49.514;8.294;2022-12-29T02:16:28;12.50;99.90
563;DHT22;266;49.514;8.294;2022-12-29T02:19:24;12.50;99.90
563;DHT22;266;49.514;8.294;2022-12-29T02:22:08;12.60;99.90
563;DHT22;266;49.514;8.294;2022-12-29T02:25:06;12.60;99.90
563;DHT22;266;49.514;8.294;2022-12-29T02:27:55;12.60;99.90
563;DHT22;266;49.514;8.294;2022-12-29T02:30:40;12.70;99.90
563;DHT22;266;49.514;8.294;2022-12-29T02:33:19;12.60;99.90
563;DHT22;266;49.514;8.294;2022-12-29T02:35:53;12.70;99.90
563;DHT22;266;49.514;8.294;2022-12-29T02:38:33;12.60;99.90
563;DHT22;266;49.514;8.294;2022-12-29T02:41:07;12.70;99.90
563;DHT22;266;49.514;8.294;2022-12-29T02:43:39;12.60;99.90
563;DHT22;266;49.514;8.294;2022-12-29T02:46:17;12.60;99.90
563;DHT22;266;49.514;8.294;2022-12-29T02:48:50;12.70;99.90
563;DHT22;266;49.514;8.294;2022-12-29T02:51:25;12.60;99.90
563;DHT22;266;49.514;8.294;2022-12-29T02:53:55;12.60;99.90
563;DHT22;266;49.514;8.294;2022-12-29T02:56:41;12.60;99.90
563;DHT22;266;49.514;8.294;2022-12-29T02:59:09;12.60;99.90
563;DHT22;266;49.514;8.294;2022-12-29T03:02:05;12.70;99.90
563;DHT22;266;49.514;8.294;2022-12-29T03:04:55;12.60;99.90
563;DHT22;266;49.514;8.294;2022-12-29T03:07:31;12.60;99.90
563;DHT22;266;49.514;8.294;2022-12-29T03:10:04;12.60;99.90
563;DHT22;266;49.514;8.294;2022-12-29T03:12:44;12.70;99.90
563;DHT22;266;49.514;8.294;2022-12-29T03:15:34;12.70;99.90
563;DHT22;266;49.514;8.294;2022-12-29T03:18:34;12.80;99.90
563;DHT22;266;49.514;8.294;2022-12-29T03:21:10;12.70;99.90
563;DHT22;266;49.514;8.294;2022-12-29T03:23:42;12.60;99.90
563;DHT22;266;49.514;8.294;2022-12-29T03:26:14;12.60;99.90
563;DHT22;266;49.514;8.294;2022-12-29T03:28:47;12.60;99.90
563;DHT22;266;49.514;8.294;2022-12-29T03:31:19;12.60;99.90
563;DHT22;266;49.514;8.294;2022-12-29T03:33:49;12.60;99.90
563;DHT22;266;49.514;8.294;2022-12-29T03:36:22;12.70;99.90
563;DHT22;266;49.514;8.294;2022-12-29T03:38:57;12.70;99.90
563;DHT22;266;49.514;8.294;2022-12-29T03:41:30;12.80;99.90
563;DHT22;266;49.514;8.294;2022-12-29T03:43:58;12.80;99.90
563;DHT22;266;49.514;8.294;2022-12-29T03:46:26;12.80;99.90
563;DHT22;266;49.514;8.294;2022-12-29T03:48:55;12.70;99.90
563;DHT22;266;49.514;8.294;2022-12-29T03:51:23;12.80;99.90
563;DHT22;266;49.514;8.294;2022-12-29T03:53:52;12.70;99.90
563;DHT22;266;49.514;8.294;2022-12-29T03:56:19;12.80;99.90
563;DHT22;266;49.514;8.294;2022-12-29T03:58:47;12.80;99.90
563;DHT22;266;49.514;8.294;2022-12-29T04:01:15;12.80;99.90
563;DHT22;266;49.514;8.294;2022-12-29T04:03:44;12.70;99.90
563;DHT22;266;49.514;8.294;2022-12-29T04:06:13;12.80;99.90
563;DHT22;266;49.514;8.294;2022-12-29T04:08:41;12.70;99.90
563;DHT22;266;49.514;8.294;2022-12-29T04:11:09;12.70;99.90
563;DHT22;266;49.514;8.294;2022-12-29T04:13:37;12.70;99.90
563;DHT22;266;49.514;8.294;2022-12-29T04:16:07;12.80;99.90
563;DHT22;266;49.514;8.294;2022-12-29T04:18:36;12.70;99.90
563;DHT22;266;49.514;8.294;2022-12-29T04:21:04;12.70;99.90
563;DHT22;266;49.514;8.294;2022-12-29T04:23:35;12.70;99.90
563;DHT22;266;49.514;8.294;2022-12-29T04:26:05;12.80;99.90
563;DHT22;266;49.514;8.294;2022-12-29T04:28:34;12.80;99.90
563;DHT22;266;49.514;8.294;2022-12-29T04:31:02;12.90;99.90
563;DHT22;266;49.514;8.294;2022-12-29T04:33:31;12.90;99.90
563;DHT22;266;49.514;8.294;2022-12-29T04:35:59;12.90;99.90
563;DHT22;266;49.514;8.294;2022-12-29T04:38:28;12.80;99.90
563;DHT22;266;49.514;8.294;2022-12-29T04:40:59;12.80;99.90
563;DHT22;266;49.514;8.294;2022-12-29T04:43:27;12.90;99.90
563;DHT22;266;49.514;8.294;2022-12-29T04:45:56;12.90;99.90
563;DHT22;266;49.514;8.294;2022-12-29T04:48:24;12.90;99.90
563;DHT22;266;49.514;8.294;2022-12-29T04:50:52;13.00;99.90
563;DHT22;266;49.514;8.294;2022-12-29T04:53:20;13.00;99.90
563;DHT22;266;49.514;8.294;2022-12-29T04:55:49;13.00;99.90
563;DHT22;266;49.514;8.294;2022-12-29T04:58:19;13.00;99.90
563;DHT22;266;49.514;8.294;2022-12-29T05:00:49;13.00;99.90
563;DHT22;266;49.514;8.294;2022-12-29T05:03:17;13.10;99.90
563;DHT22;266;49.514;8.294;2022-12-29T05:05:46;13.10;99.90
563;DHT22;266;49.514;8.294;2022-12-29T05:08:14;13.10;99.90
563;DHT22;266;49.514;8.294;2022-12-29T05:10:44;13.10;99.90
563;DHT22;266;49.514;8.294;2022-12-29T05:13:12;13.10;99.90
563;DHT22;266;49.514;8.294;2022-12-29T05:15:47;13.10;99.90
563;DHT22;266;49.514;8.294;2022-12-29T05:18:15;13.10;99.90
563;DHT22;266;49.514;8.294;2022-12-29T05:20:44;13.10;99.90
563;DHT22;266;49.514;8.294;2022-12-29T05:23:12;13.10;99.90
563;DHT22;266;49.514;8.294;2022-12-29T05:25:40;13.10;99.90
563;DHT22;266;49.514;8.294;2022-12-29T05:28:08;13.10;99.90
563;DHT22;266;49.514;8.294;2022-12-29T05:30:36;13.20;99.90
563;DHT22;266;49.514;8.294;2022-12-29T05:33:08;13.20;99.90
563;DHT22;266;49.514;8.294;2022-12-29T05:35:38;13.20;99.90
563;DHT22;266;49.514;8.294;2022-12-29T05:38:06;13.20;99.90
563;DHT22;266;49.514;8.294;2022-12-29T05:40:34;13.20;99.90
563;DHT22;266;49.514;8.294;2022-12-29T05:43:02;13.20;99.90
563;DHT22;266;49.514;8.294;2022-12-29T05:45:30;13.10;99.90
563;DHT22;266;49.514;8.294;2022-12-29T05:47:58;13.20;99.90
563;DHT22;266;49.514;8.294;2022-12-29T05:50:27;13.20;99.90
563;DHT22;266;49.514;8.294;2022-12-29T05:52:55;13.20;99.90
563;DHT22;266;49.514;8.294;2022-12-29T05:55:23;13.20;99.90
563;DHT22;266;49.514;8.294;2022-12-29T05:57:51;13.20;99.90
563;DHT22;266;49.514;8.294;2022-12-29T06:00:19;13.20;99.90
563;DHT22;266;49.514;8.294;2022-12-29T06:02:47;13.30;99.90
563;DHT22;266;49.514;8.294;2022-12-29T06:05:16;13.20;99.90
563;DHT22;266;49.514;8.294;2022-12-29T06:07:45;13.20;99.90
563;DHT22;266;49.514;8.294;2022-12-29T06:10:13;13.30;99.90
563;DHT22;266;49.514;8.294;2022-12-29T06:12:41;13.30;99.90
563;DHT22;266;49.514;8.294;2022-12-29T06:15:10;13.30;99.90
563;DHT22;266;49.514;8.294;2022-12-29T06:17:38;13.30;99.90
563;DHT22;266;49.514;8.294;2022-12-29T06:20:07;13.30;99.90
563;DHT22;266;49.514;8.294;2022-12-29T06:22:36;13.30;99.90
563;DHT22;266;49.514;8.294;2022-12-29T06:25:05;13.30;99.90
563;DHT22;266;49.514;8.294;2022-12-29T06:27:34;13.30;99.90
563;DHT22;266;49.514;8.294;2022-12-29T06:30:02;13.30;99.90
563;DHT22;266;49.514;8.294;2022-12-29T06:32:30;13.30;99.90
563;DHT22;266;49.514;8.294;2022-12-29T06:34:58;13.40;99.90
563;DHT22;266;49.514;8.294;2022-12-29T06:37:26;13.30;99.90
563;DHT22;266;49.514;8.294;2022-12-29T06:39:54;13.30;99.90
563;DHT22;266;49.514;8.294;2022-12-29T06:42:23;13.30;99.90
563;DHT22;266;49.514;8.294;2022-12-29T06:44:52;13.30;99.90
563;DHT22;266;49.514;8.294;2022-12-29T06:47:19;13.30;99.90
563;DHT22;266;49.514;8.294;2022-12-29T06:49:47;13.40;99.90
563;DHT22;266;49.514;8.294;2022-12-29T06:52:15;13.50;99.90
563;DHT22;266;49.514;8.294;2022-12-29T06:54:43;13.60;99.90
563;DHT22;266;49.514;8.294;2022-12-29T06:57:11;13.70;99.90
563;DHT22;266;49.514;8.294;2022-12-29T06:59:41;13.70;99.90
563;DHT22;266;49.514;8.294;2022-12-29T07:02:09;13.70;99.90
563;DHT22;266;49.514;8.294;2022-12-29T07:04:38;13.60;99.90
563;DHT22;266;49.514;8.294;2022-12-29T07:07:06;13.60;99.90
563;DHT22;266;49.514;8.294;2022-12-29T07:09:34;13.40;99.90
563;DHT22;266;49.514;8.294;2022-12-29T07:12:02;13.30;99.90
563;DHT22;266;49.514;8.294;2022-12-29T07:14:30;13.20;99.90
563;DHT22;266;49.514;8.294;2022-12-29T07:17:07;13.20;99.90
563;DHT22;266;49.514;8.294;2022-12-29T07:19:35;13.00;99.90
563;DHT22;266;49.514;8.294;2022-12-29T07:22:03;13.00;99.90
563;DHT22;266;49.514;8.294;2022-12-29T07:24:31;13.00;99.90
563;DHT22;266;49.514;8.294;2022-12-29T07:26:59;12.90;99.90
563;DHT22;266;49.514;8.294;2022-12-29T07:29:27;12.90;99.90
563;DHT22;266;49.514;8.294;2022-12-29T07:31:55;12.80;99.90
563;DHT22;266;49.514;8.294;2022-12-29T07:34:25;12.80;99.90
563;DHT22;266;49.514;8.294;2022-12-29T07:36:52;12.90;99.90
563;DHT22;266;49.514;8.294;2022-12-29T07:39:20;12.90;99.90
563;DHT22;266;49.514;8.294;2022-12-29T07:41:48;12.80;99.90
563;DHT22;266;49.514;8.294;2022-12-29T07:44:16;12.70;99.90
563;DHT22;266;49.514;8.294;2022-12-29T07:46:44;12.60;99.90
563;DHT22;266;49.514;8.294;2022-12-29T07:49:22;12.60;99.90
563;DHT22;266;49.514;8.294;2022-12-29T07:51:51;12.50;99.90
563;DHT22;266;49.514;8.294;2022-12-29T07:54:19;12.60;99.90
563;DHT22;266;49.514;8.294;2022-12-29T07:56:49;12.70;99.90
563;DHT22;266;49.514;8.294;2022-12-29T07:59:18;13.00;99.90
563;DHT22;266;49.514;8.294;2022-12-29T08:01:46;13.30;99.90
563;DHT22;266;49.514;8.294;2022-12-29T08:04:14;13.50;99.90
563;DHT22;266;49.514;8.294;2022-12-29T08:06:42;13.60;99.90
563;DHT22;266;49.514;8.294;2022-12-29T08:09:13;13.80;99.90
563;DHT22;266;49.514;8.294;2022-12-29T08:11:48;13.80;99.90
563;DHT22;266;49.514;8.294;2022-12-29T08:14:16;13.80;99.90
563;DHT22;266;49.514;8.294;2022-12-29T08:16:44;13.80;99.90
563;DHT22;266;49.514;8.294;2022-12-29T08:19:13;13.90;99.90
563;DHT22;266;49.514;8.294;2022-12-29T08:21:41;14.00;99.90
563;DHT22;266;49.514;8.294;2022-12-29T08:24:13;14.00;99.90
563;DHT22;266;49.514;8.294;2022-12-29T08:26:45;13.90;99.90
563;DHT22;266;49.514;8.294;2022-12-29T08:29:15;14.00;99.90
563;DHT22;266;49.514;8.294;2022-12-29T08:31:43;13.90;99.90
563;DHT22;266;49.514;8.294;2022-12-29T08:34:12;13.80;99.90
563;DHT22;266;49.514;8.294;2022-12-29T08:36:40;13.90;99.90
563;DHT22;266;49.514;8.294;2022-12-29T08:39:08;13.80;99.90
563;DHT22;266;49.514;8.294;2022-12-29T08:41:40;13.80;99.90
563;DHT22;266;49.514;8.294;2022-12-29T08:44:08;13.80;99.90
563;DHT22;266;49.514;8.294;2022-12-29T08:46:36;13.90;99.90
563;DHT22;266;49.514;8.294;2022-12-29T08:49:05;13.90;99.90
563;DHT22;266;49.514;8.294;2022-12-29T08:51:33;13.90;99.90
563;DHT22;266;49.514;8.294;2022-12-29T08:54:04;13.90;99.90
563;DHT22;266;49.514;8.294;2022-12-29T08:56:32;13.90;99.90
563;DHT22;266;49.514;8.294;2022-12-29T08:59:01;13.90;99.90
563;DHT22;266;49.514;8.294;2022-12-29T09:01:29;13.80;99.90
563;DHT22;266;49.514;8.294;2022-12-29T09:03:59;13.70;99.90
563;DHT22;266;49.514;8.294;2022-12-29T09:06:44;13.70;99.90
563;DHT22;266;49.514;8.294;2022-12-29T09:09:23;13.70;99.90
563;DHT22;266;49.514;8.294;2022-12-29T09:11:51;13.70;99.90
563;DHT22;266;49.514;8.294;2022-12-29T09:14:21;13.70;99.90
563;DHT22;266;49.514;8.294;2022-12-29T09:16:51;13.70;99.90
563;DHT22;266;49.514;8.294;2022-12-29T09:19:36;13.60;99.90
563;DHT22;266;49.514;8.294;2022-12-29T09:22:05;13.70;99.90
563;DHT22;266;49.514;8.294;2022-12-29T09:24:37;13.70;99.90
563;DHT22;266;49.514;8.294;2022-12-29T09:27:08;13.70;99.90
563;DHT22;266;49.514;8.294;2022-12-29T09:29:38;13.70;99.90
563;DHT22;266;49.514;8.294;2022-12-29T09:32:06;13.70;99.90
563;DHT22;266;49.514;8.294;2022-12-29T09:34:42;13.70;99.90
563;DHT22;266;49.514;8.294;2022-12-29T09:37:10;13.70;99.90
563;DHT22;266;49.514;8.294;2022-12-29T09:39:39;13.70;99.90
563;DHT22;266;49.514;8.294;2022-12-29T09:42:13;13.60;99.90
563;DHT22;266;49.514;8.294;2022-12-29T09:44:55;13.50;99.90
563;DHT22;266;49.514;8.294;2022-12-29T09:47:26;13.50;99.90
563;DHT22;266;49.514;8.294;2022-12-29T09:49:59;13.50;99.90
563;DHT22;266;49.514;8.294;2022-12-29T09:52:31;13.40;99.90
563;DHT22;266;49.514;8.294;2022-12-29T09:55:02;13.40;99.90
563;DHT22;266;49.514;8.294;2022-12-29T09:57:43;13.40;99.90
563;DHT22;266;49.514;8.294;2022-12-29T10:00:19;13.40;99.90
563;DHT22;266;49.514;8.294;2022-12-29T10:02:49;13.50;99.90
563;DHT22;266;49.514;8.294;2022-12-29T10:05:33;13.60;99.90
563;DHT22;266;49.514;8.294;2022-12-29T10:08:23;13.60;99.90
563;DHT22;266;49.514;8.294;2022-12-29T10:10:56;13.50;99.90
563;DHT22;266;49.514;8.294;2022-12-29T10:13:39;13.50;99.90
563;DHT22;266;49.514;8.294;2022-12-29T10:16:20;13.50;99.90
563;DHT22;266;49.514;8.294;2022-12-29T10:19:04;13.40;99.90
563;DHT22;266;49.514;8.294;2022-12-29T10:21:49;13.40;99.90
563;DHT22;266;49.514;8.294;2022-12-29T10:24:26;13.40;99.90
563;DHT22;266;49.514;8.294;2022-12-29T10:26:57;13.40;99.90
563;DHT22;266;49.514;8.294;2022-12-29T10:29:29;13.50;99.90
563;DHT22;266;49.514;8.294;2022-12-29T10:32:04;13.50;99.90
563;DHT22;266;49.514;8.294;2022-12-29T10:34:37;13.50;99.90
563;DHT22;266;49.514;8.294;2022-12-29T10:37:14;13.60;99.90
563;DHT22;266;49.514;8.294;2022-12-29T10:39:50;13.50;99.90
563;DHT22;266;49.514;8.294;2022-12-29T10:42:28;13.60;99.90
563;DHT22;266;49.514;8.294;2022-12-29T10:44:58;13.60;99.90
563;DHT22;266;49.514;8.294;2022-12-29T10:47:39;13.50;99.90
563;DHT22;266;49.514;8.294;2022-12-29T10:50:12;13.50;99.90
563;DHT22;266;49.514;8.294;2022-12-29T10:52:41;13.60;99.90
563;DHT22;266;49.514;8.294;2022-12-29T10:55:12;13.50;99.90
563;DHT22;266;49.514;8.294;2022-12-29T10:57:43;13.60;99.90
563;DHT22;266;49.514;8.294;2022-12-29T11:00:14;13.60;99.90
563;DHT22;266;49.514;8.294;2022-12-29T11:03:16;13.60;99.90
563;DHT22;266;49.514;8.294;2022-12-29T11:05:55;13.50;99.90
563;DHT22;266;49.514;8.294;2022-12-29T11:08:28;13.40;99.90
563;DHT22;266;49.514;8.294;2022-12-29T11:11:01;13.30;99.90
563;DHT22;266;49.514;8.294;2022-12-29T11:13:46;13.20;99.90
563;DHT22;266;49.514;8.294;2022-12-29T11:16:27;13.20;99.90
563;DHT22;266;49.514;8.294;2022-12-29T11:19:04;13.10;99.90
563;DHT22;266;49.514;8.294;2022-12-29T11:21:34;12.90;99.90
563;DHT22;266;49.514;8.294;2022-12-29T11:24:21;12.80;99.90
563;DHT22;266;49.514;8.294;2022-12-29T11:26:53;12.50;99.90
563;DHT22;266;49.514;8.294;2022-12-29T11:29:26;12.40;99.90
563;DHT22;266;49.514;8.294;2022-12-29T11:31:58;12.20;99.90
563;DHT22;266;49.514;8.294;2022-12-29T11:34:31;12.20;99.90
563;DHT22;266;49.514;8.294;2022-12-29T11:37:11;12.20;99.90
563;DHT22;266;49.514;8.294;2022-12-29T11:39:43;12.20;99.90
563;DHT22;266;49.514;8.294;2022-12-29T11:42:20;12.20;99.90
563;DHT22;266;49.514;8.294;2022-12-29T11:44:52;12.20;99.90
563;DHT22;266;49.514;8.294;2022-12-29T11:47:25;12.20;99.90
563;DHT22;266;49.514;8.294;2022-12-29T11:49:59;12.30;99.90
563;DHT22;266;49.514;8.294;2022-12-29T11:52:32;12.40;99.90
563;DHT22;266;49.514;8.294;2022-12-29T11:55:03;12.50;99.90
563;DHT22;266;49.514;8.294;2022-12-29T11:57:33;12.60;99.90
563;DHT22;266;49.514;8.294;2022-12-29T12:00:14;12.70;99.90
563;DHT22;266;49.514;8.294;2022-12-29T12:02:51;12.80;99.90
563;DHT22;266;49.514;8.294;2022-12-29T12:05:31;13.00;99.90
563;DHT22;266;49.514;8.294;2022-12-29T12:08:08;13.10;99.90
563;DHT22;266;49.514;8.294;2022-12-29T12:10:54;13.10;99.90
563;DHT22;266;49.514;8.294;2022-12-29T12:13:29;13.20;99.90
563;DHT22;266;49.514;8.294;2022-12-29T12:16:06;13.30;99.90
563;DHT22;266;49.514;8.294;2022-12-29T12:18:40;13.40;99.90
563;DHT22;266;49.514;8.294;2022-12-29T12:21:15;13.50;99.90
563;DHT22;266;49.514;8.294;2022-12-29T12:24:00;13.60;99.90
563;DHT22;266;49.514;8.294;2022-12-29T12:26:42;13.60;99.90
563;DHT22;266;49.514;8.294;2022-12-29T12:29:16;13.60;99.90
563;DHT22;266;49.514;8.294;2022-12-29T12:31:54;13.50;99.90
563;DHT22;266;49.514;8.294;2022-12-29T12:34:32;13.50;99.90
563;DHT22;266;49.514;8.294;2022-12-29T12:37:27;13.50;99.90
563;DHT22;266;49.514;8.294;2022-12-29T12:40:25;13.50;99.90
563;DHT22;266;49.514;8.294;2022-12-29T12:43:06;13.60;99.90
563;DHT22;266;49.514;8.294;2022-12-29T12:45:49;13.60;99.90
563;DHT22;266;49.514;8.294;2022-12-29T12:48:36;13.70;99.90
563;DHT22;266;49.514;8.294;2022-12-29T12:51:17;13.60;99.90
563;DHT22;266;49.514;8.294;2022-12-29T12:53:59;13.60;99.90
563;DHT22;266;49.514;8.294;2022-12-29T12:56:44;13.60;99.90
563;DHT22;266;49.514;8.294;2022-12-29T12:59:26;13.50;99.90
563;DHT22;266;49.514;8.294;2022-12-29T13:02:02;13.40;99.90
563;DHT22;266;49.514;8.294;2022-12-29T13:04:53;13.40;99.90
563;DHT22;266;49.514;8.294;2022-12-29T13:07:33;13.30;99.90
563;DHT22;266;49.514;8.294;2022-12-29T13:10:22;13.30;99.90
563;DHT22;266;49.514;8.294;2022-12-29T13:13:00;13.30;99.90
563;DHT22;266;49.514;8.294;2022-12-29T13:15:42;13.20;99.90
563;DHT22;266;49.514;8.294;2022-12-29T13:18:22;13.20;99.90
563;DHT22;266;49.514;8.294;2022-12-29T13:20:55;13.00;99.90
563;DHT22;266;49.514;8.294;2022-12-29T13:23:30;13.00;99.90
563;DHT22;266;49.514;8.294;2022-12-29T13:26:08;13.00;99.90
563;DHT22;266;49.514;8.294;2022-12-29T13:28:47;12.90;99.90
563;DHT22;266;49.514;8.294;2022-12-29T13:31:19;12.80;99.90
563;DHT22;266;49.514;8.294;2022-12-29T13:33:53;12.80;99.90
563;DHT22;266;49.514;8.294;2022-12-29T13:36:27;12.80;99.90
563;DHT22;266;49.514;8.294;2022-12-29T13:39:02;12.70;99.90
563;DHT22;266;49.514;8.294;2022-12-29T13:41:37;12.80;99.90
563;DHT22;266;49.514;8.294;2022-12-29T13:44:09;12.70;99.90
563;DHT22;266;49.514;8.294;2022-12-29T13:46:44;12.70;99.90
563;DHT22;266;49.514;8.294;2022-12-29T13:49:17;12.60;99.90
563;DHT22;266;49.514;8.294;2022-12-29T13:51:48;12.50;99.90
563;DHT22;266;49.514;8.294;2022-12-29T13:54:25;12.40;99.90
563;DHT22;266;49.514;8.294;2022-12-29T13:57:02;12.40;99.90
563;DHT22;266;49.514;8.294;2022-12-29T13:59:42;12.40;99.90
563;DHT22;266;49.514;8.294;2022-12-29T14:02:19;12.40;99.90
563;DHT22;266;49.514;8.294;2022-12-29T14:04:59;12.40;99.90
563;DHT22;266;49.514;8.294;2022-12-29T14:07:29;12.30;99.90
563;DHT22;266;49.514;8.294;2022-12-29T14:10:04;12.40;99.90
563;DHT22;266;49.514;8.294;2022-12-29T14:12:36;12.30;99.90
563;DHT22;266;49.514;8.294;2022-12-29T14:15:20;12.30;99.90
563;DHT22;266;49.514;8.294;2022-12-29T14:18:12;12.20;99.90
563;DHT22;266;49.514;8.294;2022-12-29T14:20:54;12.10;99.90
563;DHT22;266;49.514;8.294;2022-12-29T14:23:36;12.10;99.90
563;DHT22;266;49.514;8.294;2022-12-29T14:26:18;11.90;99.90
563;DHT22;266;49.514;8.294;2022-12-29T14:29:22;11.80;99.90
563;DHT22;266;49.514;8.294;2022-12-29T14:32:38;11.70;99.90
563;DHT22;266;49.514;8.294;2022-12-29T14:35:40;11.60;99.90
563;DHT22;266;49.514;8.294;2022-12-29T14:38:24;11.50;99.90
563;DHT22;266;49.514;8.294;2022-12-29T14:41:17;11.50;99.90
563;DHT22;266;49.514;8.294;2022-12-29T14:43:59;11.40;99.90
563;DHT22;266;49.514;8.294;2022-12-29T14:46:46;11.50;99.90
563;DHT22;266;49.514;8.294;2022-12-29T14:49:24;11.50;99.90
563;DHT22;266;49.514;8.294;2022-12-29T14:51:54;11.50;99.90
563;DHT22;266;49.514;8.294;2022-12-29T14:54:46;11.40;99.90
563;DHT22;266;49.514;8.294;2022-12-29T14:57:25;11.40;99.90
563;DHT22;266;49.514;8.294;2022-12-29T15:00:00;11.30;99.90
563;DHT22;266;49.514;8.294;2022-12-29T15:02:34;11.30;99.90
563;DHT22;266;49.514;8.294;2022-12-29T15:05:22;11.30;99.90
563;DHT22;266;49.514;8.294;2022-12-29T15:07:53;11.30;99.90
563;DHT22;266;49.514;8.294;2022-12-29T15:10:21;11.30;99.90
563;DHT22;266;49.514;8.294;2022-12-29T15:12:53;11.30;99.90
563;DHT22;266;49.514;8.294;2022-12-29T15:15:23;11.30;99.90
563;DHT22;266;49.514;8.294;2022-12-29T15:17:52;11.20;99.90
563;DHT22;266;49.514;8.294;2022-12-29T15:20:26;11.20;99.90
563;DHT22;266;49.514;8.294;2022-12-29T15:22:57;11.10;99.90
563;DHT22;266;49.514;8.294;2022-12-29T15:25:26;11.00;99.90
563;DHT22;266;49.514;8.294;2022-12-29T15:27:57;10.90;99.90
563;DHT22;266;49.514;8.294;2022-12-29T15:30:28;10.90;99.90
563;DHT22;266;49.514;8.294;2022-12-29T15:32:57;10.80;99.90
563;DHT22;266;49.514;8.294;2022-12-29T15:35:29;10.80;99.90
563;DHT22;266;49.514;8.294;2022-12-29T15:37:58;11.00;99.90
563;DHT22;266;49.514;8.294;2022-12-29T15:40:28;10.90;99.90
563;DHT22;266;49.514;8.294;2022-12-29T15:43:14;10.80;99.90
563;DHT22;266;49.514;8.294;2022-12-29T15:45:44;10.80;99.90
563;DHT22;266;49.514;8.294;2022-12-29T15:48:17;10.70;99.90
563;DHT22;266;49.514;8.294;2022-12-29T15:50:47;10.60;99.90
563;DHT22;266;49.514;8.294;2022-12-29T15:53:20;10.60;99.90
563;DHT22;266;49.514;8.294;2022-12-29T15:55:51;10.70;99.90
563;DHT22;266;49.514;8.294;2022-12-29T15:58:29;10.70;99.90
563;DHT22;266;49.514;8.294;2022-12-29T16:00:59;10.80;99.90
563;DHT22;266;49.514;8.294;2022-12-29T16:03:31;10.90;99.90
563;DHT22;266;49.514;8.294;2022-12-29T16:06:10;10.80;99.90
563;DHT22;266;49.514;8.294;2022-12-29T16:08:39;10.80;99.90
563;DHT22;266;49.514;8.294;2022-12-29T16:11:21;10.80;99.90
563;DHT22;266;49.514;8.294;2022-12-29T16:13:51;10.80;99.90
563;DHT22;266;49.514;8.294;2022-12-29T16:16:22;10.80;99.90
563;DHT22;266;49.514;8.294;2022-12-29T16:18:54;10.80;99.90
563;DHT22;266;49.514;8.294;2022-12-29T16:21:27;10.80;99.90
563;DHT22;266;49.514;8.294;2022-12-29T16:24:00;11.00;99.90
563;DHT22;266;49.514;8.294;2022-12-29T16:26:29;11.00;99.90
563;DHT22;266;49.514;8.294;2022-12-29T16:28:58;11.10;99.90
563;DHT22;266;49.514;8.294;2022-12-29T16:31:34;11.10;99.90
563;DHT22;266;49.514;8.294;2022-12-29T16:34:13;11.00;99.90
563;DHT22;266;49.514;8.294;2022-12-29T16:36:55;11.00;99.90
563;DHT22;266;49.514;8.294;2022-12-29T16:39:33;10.90;99.90
563;DHT22;266;49.514;8.294;2022-12-29T16:42:35;10.90;99.90
563;DHT22;266;49.514;8.294;2022-12-29T16:48:35;10.90;99.90
563;DHT22;266;49.514;8.294;2022-12-29T16:51:06;10.90;99.90
563;DHT22;266;49.514;8.294;2022-12-29T16:53:37;10.90;99.90
563;DHT22;266;49.514;8.294;2022-12-29T16:56:12;10.90;99.90
563;DHT22;266;49.514;8.294;2022-12-29T16:58:46;10.90;99.90
563;DHT22;266;49.514;8.294;2022-12-29T17:01:15;10.90;99.90
563;DHT22;266;49.514;8.294;2022-12-29T17:03:48;10.90;99.90
563;DHT22;266;49.514;8.294;2022-12-29T17:06:18;11.00;99.90
563;DHT22;266;49.514;8.294;2022-12-29T17:08:49;11.00;99.90
563;DHT22;266;49.514;8.294;2022-12-29T17:11:23;11.00;99.90
563;DHT22;266;49.514;8.294;2022-12-29T17:17:05;11.00;99.90
563;DHT22;266;49.514;8.294;2022-12-29T17:19:37;11.10;99.90
563;DHT22;266;49.514;8.294;2022-12-29T17:22:09;11.00;99.90
563;DHT22;266;49.514;8.294;2022-12-29T17:24:40;11.00;99.90
563;DHT22;266;49.514;8.294;2022-12-29T17:27:19;11.00;99.90